SAZR/RSA METAR and TAF weather

Enter ICAO airport designator
Station Type Date Time Source
SAZR METAR 2019/08/18 07:15 UTC NOAA

SAZR 180715Z 14013KT 9999 FEW006 BKN100 06/05 Q1025


Station Type Date Time Source
SAZR Decoded METAR 2019/08/18 07:15 UTC NOAA

Station name not available
Aug 18, 2019 - 03:15 AM EDT / 2019.08.18 0715 UTC
Wind: from the SE (140 degrees) at 15 MPH (13 KT):0
Visibility: greater than 7 mile(s):0
Sky conditions: mostly cloudy
Temperature: 42 F (6 C)
Dew Point: 41 F (5 C)
Relative Humidity: 93%
Pressure (altimeter): 30.27 in. Hg (1025 hPa)
ob: SAZR 180715Z 14013KT 9999 FEW006 BKN100 06/05 Q1025
cycle: 7

Station Type Date Time Source
SAZR TAF 2019/05/26 00:42 UTC NOAA

TAF SAZR 262300Z 2700/2724 16005KT CAVOK TX16/2718Z TN06/2710Z
BECMG 2702/2704 VRB03KT 7000 NSC PROB30
TEMPO 2706/2712 5000 BR
BECMG 2713/2715 CAVOK

Example: see airport list